sensor_id;sensor_type;location;lat;lon;timestamp;P1;durP1;ratioP1;P2;durP2;ratioP2
3417;SDS011;1722;51.316;12.370;2022-10-18T00:01:31;8.20;;;5.47;;
3417;SDS011;1722;51.316;12.370;2022-10-18T00:03:58;7.43;;;4.87;;
3417;SDS011;1722;51.316;12.370;2022-10-18T00:06:27;7.57;;;5.10;;
3417;SDS011;1722;51.316;12.370;2022-10-18T00:08:55;7.13;;;4.97;;
3417;SDS011;1722;51.316;12.370;2022-10-18T00:11:22;11.60;;;4.67;;
3417;SDS011;1722;51.316;12.370;2022-10-18T00:13:50;9.93;;;5.13;;
3417;SDS011;1722;51.316;12.370;2022-10-18T00:16:17;6.93;;;5.07;;
3417;SDS011;1722;51.316;12.370;2022-10-18T00:18:45;6.43;;;5.13;;
3417;SDS011;1722;51.316;12.370;2022-10-18T00:21:14;9.23;;;5.00;;
3417;SDS011;1722;51.316;12.370;2022-10-18T00:23:44;10.37;;;4.83;;
3417;SDS011;1722;51.316;12.370;2022-10-18T00:26:13;12.30;;;5.37;;
3417;SDS011;1722;51.316;12.370;2022-10-18T00:28:42;7.13;;;5.13;;
3417;SDS011;1722;51.316;12.370;2022-10-18T00:31:11;12.90;;;6.53;;
3417;SDS011;1722;51.316;12.370;2022-10-18T00:33:40;7.17;;;5.40;;
3417;SDS011;1722;51.316;12.370;2022-10-18T00:36:08;12.00;;;5.43;;
3417;SDS011;1722;51.316;12.370;2022-10-18T00:38:36;8.23;;;5.00;;
3417;SDS011;1722;51.316;12.370;2022-10-18T00:41:06;21.23;;;5.50;;
3417;SDS011;1722;51.316;12.370;2022-10-18T00:43:49;10.90;;;6.00;;
3417;SDS011;1722;51.316;12.370;2022-10-18T00:46:17;10.17;;;5.90;;
3417;SDS011;1722;51.316;12.370;2022-10-18T00:48:45;6.80;;;5.27;;
3417;SDS011;1722;51.316;12.370;2022-10-18T00:51:13;8.30;;;5.00;;
3417;SDS011;1722;51.316;12.370;2022-10-18T00:53:42;8.03;;;5.50;;
3417;SDS011;1722;51.316;12.370;2022-10-18T00:56:11;8.57;;;5.20;;
3417;SDS011;1722;51.316;12.370;2022-10-18T00:58:39;6.07;;;5.03;;
3417;SDS011;1722;51.316;12.370;2022-10-18T01:01:08;11.00;;;5.67;;
3417;SDS011;1722;51.316;12.370;2022-10-18T01:03:36;8.97;;;5.50;;
3417;SDS011;1722;51.316;12.370;2022-10-18T01:06:04;8.83;;;5.33;;
3417;SDS011;1722;51.316;12.370;2022-10-18T01:08:42;7.87;;;5.83;;
3417;SDS011;1722;51.316;12.370;2022-10-18T01:11:25;8.10;;;5.47;;
3417;SDS011;1722;51.316;12.370;2022-10-18T01:14:32;10.13;;;4.90;;
3417;SDS011;1722;51.316;12.370;2022-10-18T01:17:07;9.37;;;5.60;;
3417;SDS011;1722;51.316;12.370;2022-10-18T01:19:46;8.70;;;5.40;;
3417;SDS011;1722;51.316;12.370;2022-10-18T01:22:29;8.80;;;5.47;;
3417;SDS011;1722;51.316;12.370;2022-10-18T01:25:02;9.03;;;5.73;;
3417;SDS011;1722;51.316;12.370;2022-10-18T01:27:44;8.00;;;5.20;;
3417;SDS011;1722;51.316;12.370;2022-10-18T01:30:24;8.23;;;5.07;;
3417;SDS011;1722;51.316;12.370;2022-10-18T01:33:04;10.23;;;4.83;;
3417;SDS011;1722;51.316;12.370;2022-10-18T01:35:40;15.57;;;4.90;;
3417;SDS011;1722;51.316;12.370;2022-10-18T01:38:17;11.73;;;5.33;;
3417;SDS011;1722;51.316;12.370;2022-10-18T01:40:46;7.90;;;5.17;;
3417;SDS011;1722;51.316;12.370;2022-10-18T01:43:16;8.97;;;5.40;;
3417;SDS011;1722;51.316;12.370;2022-10-18T01:45:48;11.27;;;5.77;;
3417;SDS011;1722;51.316;12.370;2022-10-18T01:48:18;10.43;;;5.73;;
3417;SDS011;1722;51.316;12.370;2022-10-18T01:50:46;9.80;;;6.03;;
3417;SDS011;1722;51.316;12.370;2022-10-18T01:53:23;12.20;;;5.53;;
3417;SDS011;1722;51.316;12.370;2022-10-18T01:55:55;8.10;;;4.93;;
3417;SDS011;1722;51.316;12.370;2022-10-18T01:58:40;9.30;;;5.40;;
3417;SDS011;1722;51.316;12.370;2022-10-18T02:01:17;8.50;;;5.60;;
3417;SDS011;1722;51.316;12.370;2022-10-18T02:03:47;6.77;;;5.20;;
3417;SDS011;1722;51.316;12.370;2022-10-18T02:06:20;8.00;;;4.97;;
3417;SDS011;1722;51.316;12.370;2022-10-18T02:08:53;10.10;;;6.00;;
3417;SDS011;1722;51.316;12.370;2022-10-18T02:11:24;6.63;;;4.73;;
3417;SDS011;1722;51.316;12.370;2022-10-18T02:13:55;10.83;;;5.90;;
3417;SDS011;1722;51.316;12.370;2022-10-18T02:16:28;9.90;;;5.20;;
3417;SDS011;1722;51.316;12.370;2022-10-18T02:19:02;6.93;;;5.23;;
3417;SDS011;1722;51.316;12.370;2022-10-18T02:21:35;8.83;;;5.30;;
3417;SDS011;1722;51.316;12.370;2022-10-18T02:24:06;12.90;;;5.93;;
3417;SDS011;1722;51.316;12.370;2022-10-18T02:26:35;9.27;;;5.20;;
3417;SDS011;1722;51.316;12.370;2022-10-18T02:29:03;8.10;;;4.90;;
3417;SDS011;1722;51.316;12.370;2022-10-18T02:31:32;12.17;;;6.07;;
3417;SDS011;1722;51.316;12.370;2022-10-18T02:34:05;5.53;;;4.27;;
3417;SDS011;1722;51.316;12.370;2022-10-18T02:36:39;8.47;;;5.40;;
3417;SDS011;1722;51.316;12.370;2022-10-18T02:39:10;10.00;;;5.83;;
3417;SDS011;1722;51.316;12.370;2022-10-18T02:41:40;7.50;;;5.03;;
3417;SDS011;1722;51.316;12.370;2022-10-18T02:44:08;7.27;;;4.93;;
3417;SDS011;1722;51.316;12.370;2022-10-18T02:46:37;7.87;;;5.47;;
3417;SDS011;1722;51.316;12.370;2022-10-18T02:49:05;9.23;;;5.53;;
3417;SDS011;1722;51.316;12.370;2022-10-18T02:51:32;8.20;;;5.83;;
3417;SDS011;1722;51.316;12.370;2022-10-18T02:53:59;10.80;;;5.97;;
3417;SDS011;1722;51.316;12.370;2022-10-18T02:56:27;12.10;;;7.10;;
3417;SDS011;1722;51.316;12.370;2022-10-18T02:58:54;12.77;;;7.77;;
3417;SDS011;1722;51.316;12.370;2022-10-18T03:01:22;12.10;;;7.07;;
3417;SDS011;1722;51.316;12.370;2022-10-18T03:03:51;12.87;;;7.30;;
3417;SDS011;1722;51.316;12.370;2022-10-18T03:06:18;9.97;;;6.23;;
3417;SDS011;1722;51.316;12.370;2022-10-18T03:08:45;10.03;;;7.43;;
3417;SDS011;1722;51.316;12.370;2022-10-18T03:11:13;11.87;;;6.23;;
3417;SDS011;1722;51.316;12.370;2022-10-18T03:13:40;11.40;;;5.93;;
3417;SDS011;1722;51.316;12.370;2022-10-18T03:16:08;8.43;;;6.40;;
3417;SDS011;1722;51.316;12.370;2022-10-18T03:18:35;12.03;;;6.73;;
3417;SDS011;1722;51.316;12.370;2022-10-18T03:21:04;10.70;;;6.33;;
3417;SDS011;1722;51.316;12.370;2022-10-18T03:23:32;12.30;;;6.20;;
3417;SDS011;1722;51.316;12.370;2022-10-18T03:26:00;10.43;;;5.63;;
3417;SDS011;1722;51.316;12.370;2022-10-18T03:28:27;9.40;;;6.23;;
3417;SDS011;1722;51.316;12.370;2022-10-18T03:30:58;8.93;;;6.47;;
3417;SDS011;1722;51.316;12.370;2022-10-18T03:33:26;12.63;;;5.43;;
3417;SDS011;1722;51.316;12.370;2022-10-18T03:35:53;6.23;;;5.60;;
3417;SDS011;1722;51.316;12.370;2022-10-18T03:38:22;9.67;;;5.50;;
3417;SDS011;1722;51.316;12.370;2022-10-18T03:40:49;12.87;;;6.40;;
3417;SDS011;1722;51.316;12.370;2022-10-18T03:43:17;8.50;;;6.30;;
3417;SDS011;1722;51.316;12.370;2022-10-18T03:45:44;10.30;;;5.90;;
3417;SDS011;1722;51.316;12.370;2022-10-18T03:48:12;9.53;;;6.10;;
3417;SDS011;1722;51.316;12.370;2022-10-18T03:50:39;8.03;;;5.33;;
3417;SDS011;1722;51.316;12.370;2022-10-18T03:53:08;12.23;;;6.00;;
3417;SDS011;1722;51.316;12.370;2022-10-18T03:55:36;9.10;;;5.70;;
3417;SDS011;1722;51.316;12.370;2022-10-18T03:58:04;10.40;;;6.07;;
3417;SDS011;1722;51.316;12.370;2022-10-18T04:00:32;20.33;;;6.40;;
3417;SDS011;1722;51.316;12.370;2022-10-18T04:02:59;8.80;;;5.70;;
3417;SDS011;1722;51.316;12.370;2022-10-18T04:05:27;6.90;;;5.80;;
3417;SDS011;1722;51.316;12.370;2022-10-18T04:07:56;10.50;;;6.23;;
3417;SDS011;1722;51.316;12.370;2022-10-18T04:10:23;8.07;;;5.47;;
3417;SDS011;1722;51.316;12.370;2022-10-18T04:12:52;10.80;;;6.90;;
3417;SDS011;1722;51.316;12.370;2022-10-18T04:15:20;7.63;;;5.80;;
3417;SDS011;1722;51.316;12.370;2022-10-18T04:17:47;7.93;;;5.87;;
3417;SDS011;1722;51.316;12.370;2022-10-18T04:20:15;12.77;;;6.67;;
3417;SDS011;1722;51.316;12.370;2022-10-18T04:22:43;12.43;;;7.27;;
3417;SDS011;1722;51.316;12.370;2022-10-18T04:25:10;8.17;;;6.40;;
3417;SDS011;1722;51.316;12.370;2022-10-18T04:27:37;9.47;;;6.10;;
3417;SDS011;1722;51.316;12.370;2022-10-18T04:30:07;8.90;;;6.90;;
3417;SDS011;1722;51.316;12.370;2022-10-18T04:32:35;7.53;;;6.30;;
3417;SDS011;1722;51.316;12.370;2022-10-18T04:35:02;10.40;;;5.80;;
3417;SDS011;1722;51.316;12.370;2022-10-18T04:37:31;13.03;;;6.03;;
3417;SDS011;1722;51.316;12.370;2022-10-18T04:40:00;8.60;;;6.07;;
3417;SDS011;1722;51.316;12.370;2022-10-18T04:42:28;10.70;;;5.73;;
3417;SDS011;1722;51.316;12.370;2022-10-18T04:44:55;10.90;;;6.50;;
3417;SDS011;1722;51.316;12.370;2022-10-18T04:47:24;7.47;;;6.37;;
3417;SDS011;1722;51.316;12.370;2022-10-18T04:49:51;9.13;;;5.87;;
3417;SDS011;1722;51.316;12.370;2022-10-18T04:52:19;8.43;;;6.33;;
3417;SDS011;1722;51.316;12.370;2022-10-18T04:54:46;9.50;;;6.63;;
3417;SDS011;1722;51.316;12.370;2022-10-18T04:57:14;10.40;;;6.30;;
3417;SDS011;1722;51.316;12.370;2022-10-18T04:59:41;9.47;;;5.67;;
3417;SDS011;1722;51.316;12.370;2022-10-18T05:02:08;12.23;;;6.10;;
3417;SDS011;1722;51.316;12.370;2022-10-18T05:04:37;8.47;;;5.97;;
3417;SDS011;1722;51.316;12.370;2022-10-18T05:07:05;10.13;;;6.60;;
3417;SDS011;1722;51.316;12.370;2022-10-18T05:09:32;11.63;;;6.63;;
3417;SDS011;1722;51.316;12.370;2022-10-18T05:11:59;11.33;;;7.30;;
3417;SDS011;1722;51.316;12.370;2022-10-18T05:14:27;22.13;;;8.73;;
3417;SDS011;1722;51.316;12.370;2022-10-18T05:16:54;13.10;;;7.67;;
3417;SDS011;1722;51.316;12.370;2022-10-18T05:19:22;10.93;;;6.53;;
3417;SDS011;1722;51.316;12.370;2022-10-18T05:21:50;10.60;;;7.13;;
3417;SDS011;1722;51.316;12.370;2022-10-18T05:24:18;18.23;;;7.00;;
3417;SDS011;1722;51.316;12.370;2022-10-18T05:26:45;8.90;;;6.03;;
3417;SDS011;1722;51.316;12.370;2022-10-18T05:29:13;7.83;;;6.43;;
3417;SDS011;1722;51.316;12.370;2022-10-18T05:31:40;13.10;;;6.30;;
3417;SDS011;1722;51.316;12.370;2022-10-18T05:34:08;17.50;;;7.90;;
3417;SDS011;1722;51.316;12.370;2022-10-18T05:36:35;11.87;;;6.97;;
3417;SDS011;1722;51.316;12.370;2022-10-18T05:39:04;10.60;;;7.03;;
3417;SDS011;1722;51.316;12.370;2022-10-18T05:41:32;15.87;;;7.00;;
3417;SDS011;1722;51.316;12.370;2022-10-18T05:44:01;54.83;;;9.20;;
3417;SDS011;1722;51.316;12.370;2022-10-18T05:46:30;13.47;;;7.23;;
3417;SDS011;1722;51.316;12.370;2022-10-18T05:48:57;12.03;;;7.20;;
3417;SDS011;1722;51.316;12.370;2022-10-18T05:51:25;14.10;;;7.13;;
3417;SDS011;1722;51.316;12.370;2022-10-18T05:53:52;11.63;;;7.70;;
3417;SDS011;1722;51.316;12.370;2022-10-18T05:56:21;8.17;;;6.23;;
3417;SDS011;1722;51.316;12.370;2022-10-18T05:58:49;13.30;;;7.33;;
3417;SDS011;1722;51.316;12.370;2022-10-18T06:01:17;10.03;;;6.43;;
3417;SDS011;1722;51.316;12.370;2022-10-18T06:03:45;13.93;;;6.60;;
3417;SDS011;1722;51.316;12.370;2022-10-18T06:06:12;10.23;;;7.00;;
3417;SDS011;1722;51.316;12.370;2022-10-18T06:08:41;15.80;;;6.80;;
3417;SDS011;1722;51.316;12.370;2022-10-18T06:11:10;17.00;;;8.37;;
3417;SDS011;1722;51.316;12.370;2022-10-18T06:13:40;20.30;;;8.13;;
3417;SDS011;1722;51.316;12.370;2022-10-18T06:16:08;19.93;;;12.40;;
3417;SDS011;1722;51.316;12.370;2022-10-18T06:18:36;18.57;;;11.03;;
3417;SDS011;1722;51.316;12.370;2022-10-18T06:21:04;18.20;;;11.80;;
3417;SDS011;1722;51.316;12.370;2022-10-18T06:23:32;16.70;;;10.50;;
3417;SDS011;1722;51.316;12.370;2022-10-18T06:25:59;20.10;;;9.77;;
3417;SDS011;1722;51.316;12.370;2022-10-18T06:28:28;12.27;;;9.63;;
3417;SDS011;1722;51.316;12.370;2022-10-18T06:30:57;16.50;;;8.60;;
3417;SDS011;1722;51.316;12.370;2022-10-18T06:33:25;16.47;;;9.50;;
3417;SDS011;1722;51.316;12.370;2022-10-18T06:35:53;11.17;;;8.50;;
3417;SDS011;1722;51.316;12.370;2022-10-18T06:38:21;11.03;;;8.63;;
3417;SDS011;1722;51.316;12.370;2022-10-18T06:40:48;11.63;;;7.90;;
3417;SDS011;1722;51.316;12.370;2022-10-18T06:43:16;11.20;;;8.40;;
3417;SDS011;1722;51.316;12.370;2022-10-18T06:45:43;12.30;;;8.50;;
3417;SDS011;1722;51.316;12.370;2022-10-18T06:48:12;11.50;;;8.03;;
3417;SDS011;1722;51.316;12.370;2022-10-18T06:50:39;17.87;;;8.80;;
3417;SDS011;1722;51.316;12.370;2022-10-18T06:53:07;10.77;;;8.83;;
3417;SDS011;1722;51.316;12.370;2022-10-18T06:55:34;13.33;;;9.40;;
3417;SDS011;1722;51.316;12.370;2022-10-18T06:58:02;13.00;;;9.00;;
3417;SDS011;1722;51.316;12.370;2022-10-18T07:00:29;11.73;;;9.17;;
3417;SDS011;1722;51.316;12.370;2022-10-18T07:02:56;13.30;;;8.70;;
3417;SDS011;1722;51.316;12.370;2022-10-18T07:05:25;14.23;;;9.37;;
3417;SDS011;1722;51.316;12.370;2022-10-18T07:07:53;16.03;;;9.60;;
3417;SDS011;1722;51.316;12.370;2022-10-18T07:10:20;19.53;;;9.30;;
3417;SDS011;1722;51.316;12.370;2022-10-18T07:12:48;15.37;;;9.30;;
3417;SDS011;1722;51.316;12.370;2022-10-18T07:15:15;18.10;;;9.40;;
3417;SDS011;1722;51.316;12.370;2022-10-18T07:17:43;13.53;;;9.80;;
3417;SDS011;1722;51.316;12.370;2022-10-18T07:20:11;13.67;;;9.90;;
3417;SDS011;1722;51.316;12.370;2022-10-18T07:22:39;11.50;;;9.07;;
3417;SDS011;1722;51.316;12.370;2022-10-18T07:25:07;11.97;;;9.53;;
3417;SDS011;1722;51.316;12.370;2022-10-18T07:27:35;13.47;;;11.10;;
3417;SDS011;1722;51.316;12.370;2022-10-18T07:30:04;19.43;;;11.70;;
3417;SDS011;1722;51.316;12.370;2022-10-18T07:32:32;17.50;;;12.13;;
3417;SDS011;1722;51.316;12.370;2022-10-18T07:34:59;21.33;;;12.00;;
3417;SDS011;1722;51.316;12.370;2022-10-18T07:37:27;18.37;;;11.20;;
3417;SDS011;1722;51.316;12.370;2022-10-18T07:39:56;14.40;;;9.93;;
3417;SDS011;1722;51.316;12.370;2022-10-18T07:42:23;13.53;;;9.93;;
3417;SDS011;1722;51.316;12.370;2022-10-18T07:44:51;12.27;;;10.23;;
3417;SDS011;1722;51.316;12.370;2022-10-18T07:47:18;11.83;;;10.37;;
3417;SDS011;1722;51.316;12.370;2022-10-18T07:49:46;19.60;;;11.67;;
3417;SDS011;1722;51.316;12.370;2022-10-18T07:52:13;15.30;;;10.13;;
3417;SDS011;1722;51.316;12.370;2022-10-18T07:54:40;22.87;;;11.50;;
3417;SDS011;1722;51.316;12.370;2022-10-18T07:57:09;21.33;;;11.00;;
3417;SDS011;1722;51.316;12.370;2022-10-18T07:59:37;19.17;;;11.70;;
3417;SDS011;1722;51.316;12.370;2022-10-18T08:02:04;20.47;;;11.70;;
3417;SDS011;1722;51.316;12.370;2022-10-18T08:04:32;15.93;;;11.43;;
3417;SDS011;1722;51.316;12.370;2022-10-18T08:06:59;16.33;;;10.93;;
3417;SDS011;1722;51.316;12.370;2022-10-18T08:09:27;12.37;;;8.13;;
3417;SDS011;1722;51.316;12.370;2022-10-18T08:11:54;9.10;;;6.77;;
3417;SDS011;1722;51.316;12.370;2022-10-18T08:14:23;6.00;;;5.40;;
3417;SDS011;1722;51.316;12.370;2022-10-18T08:16:50;7.10;;;5.37;;
3417;SDS011;1722;51.316;12.370;2022-10-18T08:19:18;6.63;;;5.00;;
3417;SDS011;1722;51.316;12.370;2022-10-18T08:21:45;7.80;;;4.70;;
3417;SDS011;1722;51.316;12.370;2022-10-18T08:24:12;6.67;;;4.27;;
3417;SDS011;1722;51.316;12.370;2022-10-18T08:26:40;5.47;;;4.30;;
3417;SDS011;1722;51.316;12.370;2022-10-18T08:29:07;7.77;;;3.60;;
3417;SDS011;1722;51.316;12.370;2022-10-18T08:31:36;8.60;;;4.40;;
3417;SDS011;1722;51.316;12.370;2022-10-18T08:34:04;7.63;;;4.40;;
3417;SDS011;1722;51.316;12.370;2022-10-18T08:36:31;5.40;;;3.70;;
3417;SDS011;1722;51.316;12.370;2022-10-18T08:38:59;6.23;;;3.47;;
3417;SDS011;1722;51.316;12.370;2022-10-18T08:41:31;7.20;;;3.70;;
3417;SDS011;1722;51.316;12.370;2022-10-18T08:44:38;4.43;;;3.13;;
3417;SDS011;1722;51.316;12.370;2022-10-18T08:47:12;6.57;;;3.80;;
3417;SDS011;1722;51.316;12.370;2022-10-18T08:49:43;5.40;;;3.47;;
3417;SDS011;1722;51.316;12.370;2022-10-18T08:52:15;6.23;;;3.40;;
3417;SDS011;1722;51.316;12.370;2022-10-18T08:54:51;7.47;;;3.40;;
3417;SDS011;1722;51.316;12.370;2022-10-18T08:57:24;7.10;;;3.60;;
3417;SDS011;1722;51.316;12.370;2022-10-18T08:59:51;7.10;;;4.37;;
3417;SDS011;1722;51.316;12.370;2022-10-18T09:02:25;6.03;;;2.87;;
3417;SDS011;1722;51.316;12.370;2022-10-18T09:05:03;4.10;;;3.03;;
3417;SDS011;1722;51.316;12.370;2022-10-18T09:10:38;6.70;;;2.67;;
3417;SDS011;1722;51.316;12.370;2022-10-18T09:13:20;6.00;;;2.83;;
3417;SDS011;1722;51.316;12.370;2022-10-18T09:16:16;6.80;;;2.83;;
3417;SDS011;1722;51.316;12.370;2022-10-18T09:18:53;6.13;;;3.43;;
3417;SDS011;1722;51.316;12.370;2022-10-18T09:21:26;4.20;;;1.70;;
3417;SDS011;1722;51.316;12.370;2022-10-18T09:24:17;2.73;;;1.90;;
3417;SDS011;1722;51.316;12.370;2022-10-18T09:26:52;3.30;;;2.20;;
3417;SDS011;1722;51.316;12.370;2022-10-18T09:29:29;2.23;;;1.80;;
3417;SDS011;1722;51.316;12.370;2022-10-18T09:32:09;2.90;;;2.20;;
3417;SDS011;1722;51.316;12.370;2022-10-18T09:34:50;6.50;;;2.00;;
3417;SDS011;1722;51.316;12.370;2022-10-18T09:37:21;3.47;;;2.17;;
3417;SDS011;1722;51.316;12.370;2022-10-18T09:39:50;2.37;;;1.70;;
3417;SDS011;1722;51.316;12.370;2022-10-18T09:42:27;2.30;;;2.10;;
3417;SDS011;1722;51.316;12.370;2022-10-18T09:45:01;3.93;;;2.10;;
3417;SDS011;1722;51.316;12.370;2022-10-18T09:47:32;3.20;;;1.97;;
3417;SDS011;1722;51.316;12.370;2022-10-18T09:50:12;2.30;;;2.10;;
3417;SDS011;1722;51.316;12.370;2022-10-18T09:52:45;3.60;;;2.07;;
3417;SDS011;1722;51.316;12.370;2022-10-18T09:55:18;2.63;;;1.77;;
3417;SDS011;1722;51.316;12.370;2022-10-18T09:57:50;2.10;;;1.67;;
3417;SDS011;1722;51.316;12.370;2022-10-18T10:00:21;1.83;;;1.60;;
3417;SDS011;1722;51.316;12.370;2022-10-18T10:02:57;2.00;;;1.80;;
3417;SDS011;1722;51.316;12.370;2022-10-18T10:05:28;3.00;;;2.43;;
3417;SDS011;1722;51.316;12.370;2022-10-18T10:07:56;3.10;;;2.47;;
3417;SDS011;1722;51.316;12.370;2022-10-18T10:10:27;8.37;;;3.20;;
3417;SDS011;1722;51.316;12.370;2022-10-18T10:13:03;9.93;;;4.70;;
3417;SDS011;1722;51.316;12.370;2022-10-18T10:15:32;5.17;;;4.10;;
3417;SDS011;1722;51.316;12.370;2022-10-18T10:18:01;2.80;;;2.57;;
3417;SDS011;1722;51.316;12.370;2022-10-18T10:20:33;4.90;;;2.13;;
3417;SDS011;1722;51.316;12.370;2022-10-18T10:23:06;2.23;;;2.03;;
3417;SDS011;1722;51.316;12.370;2022-10-18T10:25:39;3.50;;;2.20;;
3417;SDS011;1722;51.316;12.370;2022-10-18T10:28:12;3.70;;;2.70;;
3417;SDS011;1722;51.316;12.370;2022-10-18T10:30:42;4.63;;;2.60;;
3417;SDS011;1722;51.316;12.370;2022-10-18T10:33:29;5.57;;;2.90;;
3417;SDS011;1722;51.316;12.370;2022-10-18T10:36:00;3.23;;;2.60;;
3417;SDS011;1722;51.316;12.370;2022-10-18T10:38:29;2.63;;;2.23;;
3417;SDS011;1722;51.316;12.370;2022-10-18T10:40:57;3.20;;;2.30;;
3417;SDS011;1722;51.316;12.370;2022-10-18T10:43:26;2.67;;;2.47;;
3417;SDS011;1722;51.316;12.370;2022-10-18T10:45:59;2.70;;;2.50;;
3417;SDS011;1722;51.316;12.370;2022-10-18T10:48:30;4.07;;;2.60;;
3417;SDS011;1722;51.316;12.370;2022-10-18T10:51:02;5.47;;;2.73;;
3417;SDS011;1722;51.316;12.370;2022-10-18T10:53:34;3.37;;;2.80;;
3417;SDS011;1722;51.316;12.370;2022-10-18T10:56:05;2.63;;;2.30;;
3417;SDS011;1722;51.316;12.370;2022-10-18T10:58:39;13.17;;;2.73;;
3417;SDS011;1722;51.316;12.370;2022-10-18T11:03:54;3.63;;;3.27;;
3417;SDS011;1722;51.316;12.370;2022-10-18T11:09:23;5.20;;;3.27;;
3417;SDS011;1722;51.316;12.370;2022-10-18T11:12:18;4.30;;;3.90;;
3417;SDS011;1722;51.316;12.370;2022-10-18T11:14:52;6.83;;;4.47;;
3417;SDS011;1722;51.316;12.370;2022-10-18T11:17:26;4.93;;;3.30;;
3417;SDS011;1722;51.316;12.370;2022-10-18T11:20:02;4.00;;;3.43;;
3417;SDS011;1722;51.316;12.370;2022-10-18T11:22:48;7.60;;;4.03;;
3417;SDS011;1722;51.316;12.370;2022-10-18T11:25:26;5.00;;;3.90;;
3417;SDS011;1722;51.316;12.370;2022-10-18T11:28:00;4.80;;;3.70;;
3417;SDS011;1722;51.316;12.370;2022-10-18T11:30:36;6.97;;;4.50;;
3417;SDS011;1722;51.316;12.370;2022-10-18T11:33:17;6.33;;;4.80;;
3417;SDS011;1722;51.316;12.370;2022-10-18T11:35:52;6.77;;;4.23;;
3417;SDS011;1722;51.316;12.370;2022-10-18T11:38:29;5.40;;;4.37;;
3417;SDS011;1722;51.316;12.370;2022-10-18T11:41:02;5.80;;;4.00;;
3417;SDS011;1722;51.316;12.370;2022-10-18T11:43:50;8.40;;;4.30;;
3417;SDS011;1722;51.316;12.370;2022-10-18T11:46:24;4.60;;;4.20;;
3417;SDS011;1722;51.316;12.370;2022-10-18T11:49:10;6.17;;;4.63;;
3417;SDS011;1722;51.316;12.370;2022-10-18T11:52:00;7.40;;;4.70;;
3417;SDS011;1722;51.316;12.370;2022-10-18T11:54:42;9.33;;;4.50;;
3417;SDS011;1722;51.316;12.370;2022-10-18T11:57:30;7.40;;;4.87;;
3417;SDS011;1722;51.316;12.370;2022-10-18T12:00:14;7.57;;;5.63;;
3417;SDS011;1722;51.316;12.370;2022-10-18T12:03:03;9.90;;;6.53;;
3417;SDS011;1722;51.316;12.370;2022-10-18T12:05:42;6.53;;;4.90;;
3417;SDS011;1722;51.316;12.370;2022-10-18T12:08:12;5.27;;;4.20;;
3417;SDS011;1722;51.316;12.370;2022-10-18T12:10:46;5.17;;;4.23;;
3417;SDS011;1722;51.316;12.370;2022-10-18T12:13:17;4.30;;;3.90;;
3417;SDS011;1722;51.316;12.370;2022-10-18T12:15:49;6.43;;;4.33;;
3417;SDS011;1722;51.316;12.370;2022-10-18T12:18:18;6.23;;;4.33;;
3417;SDS011;1722;51.316;12.370;2022-10-18T12:20:49;4.17;;;3.47;;
3417;SDS011;1722;51.316;12.370;2022-10-18T12:23:19;6.37;;;4.50;;
3417;SDS011;1722;51.316;12.370;2022-10-18T12:25:54;3.43;;;3.13;;
3417;SDS011;1722;51.316;12.370;2022-10-18T12:28:29;6.37;;;3.77;;
3417;SDS011;1722;51.316;12.370;2022-10-18T12:31:04;4.67;;;4.00;;
3417;SDS011;1722;51.316;12.370;2022-10-18T12:33:39;5.37;;;4.13;;
3417;SDS011;1722;51.316;12.370;2022-10-18T12:36:14;5.33;;;4.70;;
3417;SDS011;1722;51.316;12.370;2022-10-18T12:38:55;5.63;;;5.07;;
3417;SDS011;1722;51.316;12.370;2022-10-18T12:41:28;7.00;;;3.63;;
3417;SDS011;1722;51.316;12.370;2022-10-18T12:43:58;6.10;;;4.20;;
3417;SDS011;1722;51.316;12.370;2022-10-18T12:46:41;6.70;;;4.57;;
3417;SDS011;1722;51.316;12.370;2022-10-18T12:49:11;4.13;;;3.63;;
3417;SDS011;1722;51.316;12.370;2022-10-18T12:51:49;4.77;;;4.20;;
3417;SDS011;1722;51.316;12.370;2022-10-18T12:54:19;5.40;;;4.53;;
3417;SDS011;1722;51.316;12.370;2022-10-18T12:56:52;4.13;;;3.60;;
3417;SDS011;1722;51.316;12.370;2022-10-18T13:02:25;4.47;;;3.80;;
3417;SDS011;1722;51.316;12.370;2022-10-18T13:04:56;3.97;;;3.57;;
3417;SDS011;1722;51.316;12.370;2022-10-18T13:07:32;3.93;;;3.53;;
3417;SDS011;1722;51.316;12.370;2022-10-18T13:13:16;6.83;;;5.23;;
3417;SDS011;1722;51.316;12.370;2022-10-18T13:15:57;5.23;;;4.50;;
3417;SDS011;1722;51.316;12.370;2022-10-18T13:18:31;5.20;;;4.20;;
3417;SDS011;1722;51.316;12.370;2022-10-18T13:21:10;6.20;;;4.23;;
3417;SDS011;1722;51.316;12.370;2022-10-18T13:23:51;4.93;;;3.93;;
3417;SDS011;1722;51.316;12.370;2022-10-18T13:26:29;5.50;;;3.77;;
3417;SDS011;1722;51.316;12.370;2022-10-18T13:29:08;3.83;;;3.43;;
3417;SDS011;1722;51.316;12.370;2022-10-18T13:32:00;4.43;;;3.03;;
3417;SDS011;1722;51.316;12.370;2022-10-18T13:34:33;6.30;;;3.80;;
3417;SDS011;1722;51.316;12.370;2022-10-18T13:37:04;6.63;;;4.70;;
3417;SDS011;1722;51.316;12.370;2022-10-18T13:39:44;7.33;;;3.80;;
3417;SDS011;1722;51.316;12.370;2022-10-18T13:42:29;4.93;;;3.57;;
3417;SDS011;1722;51.316;12.370;2022-10-18T13:54:31;5.90;;;4.37;;
3417;SDS011;1722;51.316;12.370;2022-10-18T13:57:20;4.80;;;4.30;;
3417;SDS011;1722;51.316;12.370;2022-10-18T14:03:01;5.33;;;4.50;;
3417;SDS011;1722;51.316;12.370;2022-10-18T14:05:49;5.33;;;4.83;;
3417;SDS011;1722;51.316;12.370;2022-10-18T14:08:19;5.13;;;4.17;;
3417;SDS011;1722;51.316;12.370;2022-10-18T14:10:53;6.10;;;3.60;;
3417;SDS011;1722;51.316;12.370;2022-10-18T14:13:30;4.83;;;4.07;;
3417;SDS011;1722;51.316;12.370;2022-10-18T14:16:04;11.93;;;4.17;;
3417;SDS011;1722;51.316;12.370;2022-10-18T14:18:36;3.47;;;3.17;;
3417;SDS011;1722;51.316;12.370;2022-10-18T14:21:10;5.37;;;3.60;;
3417;SDS011;1722;51.316;12.370;2022-10-18T14:23:51;6.20;;;3.83;;
3417;SDS011;1722;51.316;12.370;2022-10-18T14:26:19;5.23;;;4.00;;
3417;SDS011;1722;51.316;12.370;2022-10-18T14:29:00;6.17;;;3.90;;
3417;SDS011;1722;51.316;12.370;2022-10-18T14:31:29;3.67;;;3.10;;
3417;SDS011;1722;51.316;12.370;2022-10-18T14:33:56;4.57;;;3.60;;
3417;SDS011;1722;51.316;12.370;2022-10-18T14:36:26;7.90;;;3.70;;
3417;SDS011;1722;51.316;12.370;2022-10-18T14:38:56;6.13;;;3.50;;
3417;SDS011;1722;51.316;12.370;2022-10-18T14:41:26;4.50;;;3.57;;
3417;SDS011;1722;51.316;12.370;2022-10-18T14:44:08;4.90;;;2.97;;
3417;SDS011;1722;51.316;12.370;2022-10-18T14:46:43;5.00;;;4.10;;
3417;SDS011;1722;51.316;12.370;2022-10-18T14:49:12;4.60;;;3.20;;
3417;SDS011;1722;51.316;12.370;2022-10-18T14:51:43;4.60;;;3.10;;
3417;SDS011;1722;51.316;12.370;2022-10-18T14:54:13;6.20;;;3.50;;
3417;SDS011;1722;51.316;12.370;2022-10-18T14:56:44;9.20;;;3.57;;
3417;SDS011;1722;51.316;12.370;2022-10-18T14:59:14;6.60;;;4.00;;
3417;SDS011;1722;51.316;12.370;2022-10-18T15:01:50;4.60;;;3.20;;
3417;SDS011;1722;51.316;12.370;2022-10-18T15:04:20;3.83;;;3.53;;
3417;SDS011;1722;51.316;12.370;2022-10-18T15:06:51;6.10;;;3.77;;
3417;SDS011;1722;51.316;12.370;2022-10-18T15:09:20;6.10;;;4.67;;
3417;SDS011;1722;51.316;12.370;2022-10-18T15:11:49;5.00;;;4.00;;
3417;SDS011;1722;51.316;12.370;2022-10-18T15:14:19;5.20;;;4.00;;
3417;SDS011;1722;51.316;12.370;2022-10-18T15:16:47;8.50;;;3.60;;
3417;SDS011;1722;51.316;12.370;2022-10-18T15:19:26;4.30;;;3.87;;
3417;SDS011;1722;51.316;12.370;2022-10-18T15:21:58;4.63;;;3.70;;
3417;SDS011;1722;51.316;12.370;2022-10-18T15:24:28;5.00;;;3.90;;
3417;SDS011;1722;51.316;12.370;2022-10-18T15:27:00;8.00;;;4.57;;
3417;SDS011;1722;51.316;12.370;2022-10-18T15:29:34;5.10;;;4.60;;
3417;SDS011;1722;51.316;12.370;2022-10-18T15:32:06;7.23;;;4.90;;
3417;SDS011;1722;51.316;12.370;2022-10-18T15:34:40;4.57;;;4.07;;
3417;SDS011;1722;51.316;12.370;2022-10-18T15:37:16;5.97;;;4.70;;
3417;SDS011;1722;51.316;12.370;2022-10-18T15:42:42;4.70;;;4.30;;
3417;SDS011;1722;51.316;12.370;2022-10-18T15:45:29;5.30;;;4.80;;
3417;SDS011;1722;51.316;12.370;2022-10-18T15:48:13;8.13;;;5.70;;
3417;SDS011;1722;51.316;12.370;2022-10-18T15:50:45;7.50;;;4.77;;
3417;SDS011;1722;51.316;12.370;2022-10-18T15:53:31;6.00;;;4.80;;